Wetterdaten: Woche 07.07.14 - 13.07.14 (KW28)
Datum Zeit Temp. A. Feuchte A. Luftdruck Regen Wind Richtung Taupunkt Windchill Windben
07.07.2014 00:00 19,1 C 81 % 1011,5 hPa 0,0 l/m 0,0 km/h N 15,7 C 19,1 C 0,0 km/h
07.07.2014 01:00 18,3 C 83 % 1011,4 hPa 0,0 l/m 0,0 km/h N 15,3 C 18,3 C 0,0 km/h
07.07.2014 02:00 17,6 C 83 % 1011,2 hPa 0,0 l/m 0,0 km/h N 14,7 C 17,6 C 0,0 km/h
07.07.2014 03:00 17,1 C 82 % 1011,2 hPa 0,0 l/m 0,0 km/h N 14,1 C 17,1 C 0,4 km/h
07.07.2014 04:00 16,8 C 82 % 1011,1 hPa 0,0 l/m 0,0 km/h N 13,7 C 16,8 C 0,0 km/h
07.07.2014 05:00 16,4 C 82 % 1011,3 hPa 0,0 l/m 0,0 km/h N 13,2 C 16,4 C 0,0 km/h
07.07.2014 06:00 16,9 C 79 % 1011,8 hPa 0,0 l/m 0,0 km/h N 13,3 C 16,9 C 0,0 km/h
07.07.2014 07:00 19,8 C 79 % 1012,9 hPa 0,0 l/m 2,7 km/h N 16,0 C 19,8 C 10,4 km/h
07.07.2014 08:00 23,9 C 72 % 1013,4 hPa 0,0 l/m 3,3 km/h N 18,4 C 23,9 C 14,9 km/h
07.07.2014 09:00 25,3 C 65 % 1013,7 hPa 0,0 l/m 1,5 km/h N 18,2 C 25,3 C 14,9 km/h
07.07.2014 10:00 26,5 C 61 % 1013,8 hPa 0,0 l/m 3,4 km/h N 18,4 C 26,5 C 14,9 km/h
07.07.2014 11:00 27,8 C 59 % 1013,9 hPa 0,0 l/m 1,1 km/h N 18,8 C 27,8 C 5,6 km/h
07.07.2014 12:00 28,6 C 56 % 1013,8 hPa 0,0 l/m 0,2 km/h N 18,8 C 28,6 C 3,2 km/h
07.07.2014 13:00 29,4 C 56 % 1013,4 hPa 0,0 l/m 0,0 km/h N 19,5 C 29,4 C 0,4 km/h
07.07.2014 14:00 29,7 C 54 % 1013,4 hPa 0,0 l/m 0,0 km/h N 19,4 C 29,7 C 0,0 km/h
07.07.2014 15:00 28,3 C 61 % 1013,0 hPa 0,0 l/m 0,0 km/h N 20,0 C 28,3 C 0,4 km/h
07.07.2014 16:00 28,4 C 61 % 1012,3 hPa 0,0 l/m 0,0 km/h N 20,0 C 28,4 C 0,0 km/h
07.07.2014 17:00 29,7 C 53 % 1011,5 hPa 0,0 l/m 0,0 km/h N 19,0 C 29,7 C 0,0 km/h
07.07.2014 18:00 30,3 C 51 % 1011,0 hPa 0,0 l/m 0,0 km/h N 18,9 C 30,3 C 0,0 km/h
07.07.2014 19:00 29,3 C 59 % 1010,6 hPa 0,0 l/m 0,0 km/h N 20,4 C 29,3 C 0,0 km/h
07.07.2014 20:00 27,4 C 63 % 1010,5 hPa 0,0 l/m 0,0 km/h N 19,8 C 27,4 C 0,4 km/h
07.07.2014 21:00 25,1 C 70 % 1010,4 hPa 0,0 l/m 0,0 km/h N 19,2 C 25,1 C 0,0 km/h
07.07.2014 22:00 22,8 C 78 % 1010,5 hPa 0,0 l/m 0,0 km/h N 18,6 C 22,8 C 0,0 km/h
07.07.2014 23:00 21,4 C 82 % 1010,3 hPa 0,0 l/m 0,0 km/h N 18,1 C 21,4 C 0,0 km/h
08.07.2014 00:00 20,6 C 82 % 1009,8 hPa 0,0 l/m 0,0 km/h N 17,5 C 20,6 C 0,0 km/h
08.07.2014 01:00 20,2 C 81 % 1009,2 hPa 0,0 l/m 0,0 km/h N 16,8 C 20,2 C 0,0 km/h
08.07.2014 02:00 19,8 C 80 % 1008,7 hPa 0,0 l/m 0,0 km/h N 16,3 C 19,8 C 0,0 km/h
08.07.2014 03:00 19,6 C 79 % 1008,3 hPa 0,0 l/m 0,0 km/h N 15,9 C 19,6 C 0,0 km/h
08.07.2014 04:00 19,3 C 79 % 1007,7 hPa 0,0 l/m 0,0 km/h N 15,6 C 19,3 C 0,0 km/h
08.07.2014 05:00 19,1 C 79 % 1007,1 hPa 0,0 l/m 0,0 km/h N 15,3 C 19,1 C 0,0 km/h
08.07.2014 06:00 19,7 C 77 % 1006,8 hPa 0,0 l/m 0,4 km/h N 15,5 C 19,7 C 4,4 km/h
08.07.2014 07:00 21,0 C 81 % 1006,5 hPa 0,0 l/m 2,2 km/h N 17,6 C 21,0 C 8,1 km/h
08.07.2014 08:00 23,4 C 79 % 1006,0 hPa 0,0 l/m 1,2 km/h N 19,5 C 23,4 C 4,8 km/h
08.07.2014 09:00 26,4 C 69 % 1004,8 hPa 0,0 l/m 0,2 km/h N 20,1 C 26,4 C 4,0 km/h
08.07.2014 10:00 28,7 C 59 % 1004,9 hPa 0,0 l/m 0,4 km/h N 19,8 C 28,7 C 6,9 km/h
08.07.2014 11:00 28,9 C 52 % 1004,6 hPa 0,0 l/m 0,0 km/h N 18,1 C 28,9 C 0,0 km/h
08.07.2014 12:00 30,2 C 49 % 1004,0 hPa 0,0 l/m 0,0 km/h N 18,1 C 30,2 C 0,0 km/h
08.07.2014 13:00 30,4 C 49 % 1003,2 hPa 0,0 l/m 0,0 km/h N 18,3 C 30,4 C 0,0 km/h
08.07.2014 14:00 30,4 C 47 % 1002,8 hPa 0,0 l/m 0,0 km/h N 17,7 C 30,4 C 0,0 km/h
08.07.2014 15:00 30,1 C 44 % 1002,2 hPa 0,0 l/m 0,0 km/h N 16,6 C 30,1 C 0,0 km/h
08.07.2014 16:00 29,1 C 44 % 1002,0 hPa 0,0 l/m 0,3 km/h N 15,6 C 29,1 C 4,4 km/h
08.07.2014 17:00 27,8 C 51 % 1001,4 hPa 0,0 l/m 4,6 km/h N 16,6 C 27,7 C 20,1 km/h
08.07.2014 18:00 27,2 C 57 % 1001,0 hPa 0,0 l/m 0,0 km/h N 17,8 C 27,2 C 0,0 km/h
08.07.2014 19:00 26,5 C 56 % 1001,3 hPa 0,0 l/m 1,2 km/h N 17,1 C 26,5 C 6,4 km/h
08.07.2014 20:00 24,4 C 59 % 1002,4 hPa 0,0 l/m 4,7 km/h N 15,7 C 24,4 C 20,5 km/h
08.07.2014 21:00 19,0 C 68 % 1003,6 hPa 0,0 l/m 6,7 km/h N 12,9 C 18,8 C 27,3 km/h
08.07.2014 22:00 17,8 C 68 % 1003,7 hPa 0,0 l/m 8,4 km/h N 11,7 C 16,8 C 35,0 km/h
08.07.2014 23:00 17,5 C 69 % 1003,6 hPa 0,0 l/m 7,4 km/h N 11,6 C 17,0 C 29,0 km/h
09.07.2014 00:00 17,5 C 69 % 1003,6 hPa 0,0 l/m 8,2 km/h N 11,7 C 16,6 C 32,6 km/h
09.07.2014 01:00 17,4 C 69 % 1003,8 hPa 0,0 l/m 10,6 km/h N 11,5 C 15,6 C 35,4 km/h
09.07.2014 02:00 16,3 C 75 % 1004,0 hPa 0,3 l/m 5,2 km/h N 11,8 C 15,9 C 23,8 km/h
09.07.2014 03:00 14,8 C 81 % 1004,1 hPa 1,0 l/m 2,3 km/h N 11,6 C 14,8 C 16,5 km/h
09.07.2014 04:00 14,8 C 81 % 1003,6 hPa 0,0 l/m 4,4 km/h N 11,6 C 14,8 C 22,5 km/h
09.07.2014 05:00 14,9 C 80 % 1004,0 hPa 0,3 l/m 4,1 km/h N 11,5 C 14,9 C 20,1 km/h
09.07.2014 06:00 14,9 C 80 % 1004,4 hPa 0,0 l/m 5,1 km/h N 11,5 C 14,8 C 21,3 km/h
09.07.2014 07:00 15,4 C 79 % 1004,3 hPa 0,0 l/m 4,7 km/h N 11,7 C 15,4 C 22,5 km/h
09.07.2014 08:00 15,8 C 78 % 1004,7 hPa 0,0 l/m 3,8 km/h N 11,8 C 15,8 C 18,9 km/h
09.07.2014 09:00 16,5 C 75 % 1004,8 hPa 0,0 l/m 4,7 km/h N 12,0 C 16,5 C 23,7 km/h
09.07.2014 10:00 17,4 C 72 % 1005,2 hPa 0,0 l/m 7,0 km/h N 12,2 C 17,1 C 29,8 km/h
09.07.2014 11:00 17,9 C 69 % 1005,4 hPa 0,0 l/m 7,2 km/h N 12,2 C 17,5 C 27,4 km/h
09.07.2014 12:00 18,8 C 66 % 1005,3 hPa 0,0 l/m 8,9 km/h N 12,3 C 17,8 C 29,8 km/h
09.07.2014 13:00 19,4 C 62 % 1005,5 hPa 0,0 l/m 13,6 km/h N 11,9 C 16,9 C 33,0 km/h
09.07.2014 14:00 20,5 C 59 % 1005,1 hPa 0,0 l/m 12,7 km/h N 12,3 C 18,5 C 36,6 km/h
09.07.2014 15:00 19,8 C 59 % 1005,2 hPa 0,0 l/m 13,2 km/h N 11,6 C 17,5 C 35,4 km/h
09.07.2014 16:00 19,8 C 57 % 1005,3 hPa 0,3 l/m 14,9 km/h N 11,0 C 17,0 C 39,8 km/h
09.07.2014 17:00 19,4 C 59 % 1005,7 hPa 0,0 l/m 12,3 km/h N 11,0 C 17,3 C 33,4 km/h
09.07.2014 18:00 18,4 C 60 % 1006,2 hPa 0,0 l/m 12,4 km/h N 10,5 C 16,1 C 37,0 km/h
09.07.2014 19:00 18,0 C 61 % 1006,5 hPa 0,0 l/m 14,2 km/h N 10,3 C 15,1 C 38,2 km/h
09.07.2014 20:00 16,8 C 63 % 1006,7 hPa 0,0 l/m 13,5 km/h N 9,8 C 13,9 C 41,0 km/h
09.07.2014 21:00 15,9 C 66 % 1007,2 hPa 0,0 l/m 11,4 km/h N 9,4 C 13,6 C 33,4 km/h
09.07.2014 22:00 15,4 C 68 % 1007,9 hPa 0,0 l/m 5,3 km/h N 9,4 C 15,3 C 24,5 km/h
09.07.2014 23:00 15,2 C 67 % 1007,8 hPa 0,0 l/m 7,8 km/h N 9,2 C 14,1 C 24,5 km/h
10.07.2014 00:00 14,9 C 68 % 1007,6 hPa 0,0 l/m 6,9 km/h N 8,9 C 14,4 C 22,1 km/h
10.07.2014 01:00 14,5 C 71 % 1007,6 hPa 0,0 l/m 4,8 km/h N 9,2 C 14,4 C 16,5 km/h
10.07.2014 02:00 14,3 C 72 % 1007,7 hPa 0,0 l/m 5,3 km/h N 9,3 C 14,3 C 19,3 km/h
10.07.2014 03:00 14,3 C 70 % 1007,2 hPa 0,0 l/m 9,1 km/h N 8,8 C 12,8 C 24,5 km/h
10.07.2014 04:00 13,8 C 71 % 1007,2 hPa 0,0 l/m 5,6 km/h N 8,6 C 13,7 C 17,7 km/h
10.07.2014 05:00 13,0 C 74 % 1007,4 hPa 0,0 l/m 2,0 km/h N 8,5 C 13,0 C 12,1 km/h
10.07.2014 06:00 14,0 C 71 % 1007,8 hPa 0,0 l/m 7,4 km/h N 8,9 C 13,4 C 22,1 km/h
10.07.2014 07:00 14,8 C 70 % 1007,7 hPa 0,0 l/m 8,6 km/h N 9,3 C 13,7 C 24,1 km/h
10.07.2014 08:00 16,1 C 66 % 1007,5 hPa 0,0 l/m 9,7 km/h N 9,7 C 14,6 C 26,5 km/h
10.07.2014 09:00 17,0 C 63 % 1007,5 hPa 0,0 l/m 11,9 km/h N 10,0 C 14,6 C 29,4 km/h
10.07.2014 10:00 17,8 C 61 % 1007,5 hPa 0,0 l/m 9,6 km/h N 10,2 C 16,4 C 25,8 km/h
10.07.2014 11:00 18,1 C 61 % 1007,6 hPa 0,0 l/m 7,7 km/h N 10,5 C 17,5 C 21,7 km/h
10.07.2014 12:00 18,1 C 61 % 1008,0 hPa 0,0 l/m 6,8 km/h N 10,3 C 17,8 C 22,5 km/h
10.07.2014 13:00 18,0 C 62 % 1007,8 hPa 0,0 l/m 5,3 km/h N 10,5 C 18,0 C 16,9 km/h
10.07.2014 14:00 19,2 C 57 % 1007,4 hPa 0,0 l/m 7,8 km/h N 10,4 C 18,6 C 20,5 km/h
10.07.2014 15:00 19,4 C 56 % 1007,3 hPa 0,0 l/m 5,1 km/h N 10,4 C 19,3 C 17,3 km/h
10.07.2014 16:00 19,1 C 58 % 1007,3 hPa 0,0 l/m 5,3 km/h N 10,7 C 19,1 C 17,7 km/h
10.07.2014 17:00 19,2 C 58 % 1006,9 hPa 0,0 l/m 7,2 km/h N 10,6 C 18,9 C 21,3 km/h
10.07.2014 18:00 19,0 C 57 % 1006,9 hPa 0,0 l/m 8,1 km/h N 10,2 C 18,2 C 22,9 km/h
10.07.2014 19:00 18,6 C 59 % 1007,2 hPa 0,0 l/m 5,8 km/h N 10,3 C 18,4 C 16,9 km/h
10.07.2014 20:00 18,2 C 61 % 1007,7 hPa 0,0 l/m 4,8 km/h N 10,5 C 18,2 C 18,5 km/h
10.07.2014 21:00 17,8 C 63 % 1008,0 hPa 0,0 l/m 4,8 km/h N 10,6 C 17,8 C 16,5 km/h
10.07.2014 22:00 17,5 C 65 % 1008,1 hPa 0,0 l/m 6,2 km/h N 10,7 C 17,2 C 16,5 km/h
10.07.2014 23:00 17,1 C 67 % 1007,8 hPa 0,0 l/m 6,4 km/h N 10,8 C 17,0 C 18,1 km/h
11.07.2014 00:00 16,6 C 69 % 1007,9 hPa 0,0 l/m 4,7 km/h N 10,9 C 16,6 C 16,9 km/h
11.07.2014 01:00 16,2 C 71 % 1007,7 hPa 0,0 l/m 7,3 km/h N 11,0 C 15,6 C 22,5 km/h
11.07.2014 02:00 15,8 C 71 % 1007,2 hPa 0,0 l/m 8,8 km/h N 10,7 C 14,6 C 22,9 km/h
11.07.2014 03:00 15,8 C 72 % 1006,8 hPa 0,0 l/m 10,2 km/h N 10,7 C 13,9 C 27,8 km/h
11.07.2014 04:00 15,8 C 71 % 1006,7 hPa 0,0 l/m 8,6 km/h N 10,6 C 14,7 C 24,5 km/h
11.07.2014 05:00 15,4 C 74 % 1006,8 hPa 0,5 l/m 8,0 km/h N 10,8 C 14,6 C 21,7 km/h
11.07.2014 06:00 14,0 C 82 % 1006,9 hPa 2,3 l/m 9,4 km/h N 11,0 C 12,4 C 24,1 km/h
11.07.2014 07:00 13,7 C 83 % 1006,9 hPa 4,2 l/m 10,5 km/h N 10,9 C 11,5 C 28,2 km/h
11.07.2014 08:00 13,8 C 83 % 1007,0 hPa 1,6 l/m 12,4 km/h N 10,9 C 10,7 C 27,8 km/h
11.07.2014 09:00 14,8 C 83 % 1006,8 hPa 0,0 l/m 14,1 km/h N 11,8 C 11,3 C 31,8 km/h
11.07.2014 10:00 16,0 C 80 % 1006,6 hPa 0,0 l/m 12,8 km/h N 12,6 C 13,1 C 30,2 km/h
11.07.2014 11:00 17,4 C 77 % 1006,0 hPa 0,0 l/m 13,7 km/h N 13,3 C 14,5 C 33,0 km/h
11.07.2014 12:00 16,6 C 81 % 1006,1 hPa 2,1 l/m 12,2 km/h N 13,3 C 14,1 C 30,6 km/h
11.07.2014 13:00 15,8 C 83 % 1006,2 hPa 1,8 l/m 12,2 km/h N 12,9 C 13,2 C 29,4 km/h
11.07.2014 14:00 16,8 C 82 % 1005,9 hPa 0,0 l/m 13,8 km/h N 13,7 C 13,7 C 35,0 km/h
11.07.2014 15:00 17,3 C 81 % 1006,1 hPa 2,1 l/m 14,4 km/h N 14,0 C 14,2 C 32,6 km/h
11.07.2014 16:00 16,2 C 83 % 1006,0 hPa 3,9 l/m 10,2 km/h N 13,3 C 14,4 C 29,8 km/h
11.07.2014 17:00 16,5 C 83 % 1005,8 hPa 0,5 l/m 12,3 km/h N 13,6 C 14,0 C 31,8 km/h
11.07.2014 18:00 16,4 C 83 % 1006,2 hPa 2,3 l/m 11,7 km/h N 13,5 C 14,1 C 28,2 km/h
11.07.2014 19:00 16,3 C 84 % 1006,3 hPa 0,3 l/m 6,9 km/h N 13,4 C 15,9 C 20,9 km/h
11.07.2014 20:00 16,7 C 82 % 1006,3 hPa 0,0 l/m 11,0 km/h N 13,5 C 14,6 C 25,7 km/h
11.07.2014 21:00 16,8 C 79 % 1006,9 hPa 0,0 l/m 8,3 km/h N 13,2 C 15,8 C 23,3 km/h
11.07.2014 22:00 16,8 C 80 % 1007,3 hPa 0,0 l/m 8,5 km/h N 13,3 C 15,8 C 24,5 km/h
11.07.2014 23:00 16,8 C 79 % 1007,7 hPa 0,0 l/m 8,4 km/h N 13,1 C 15,8 C 22,1 km/h
12.07.2014 00:00 16,4 C 80 % 1007,6 hPa 0,3 l/m 7,9 km/h N 13,0 C 15,7 C 23,7 km/h
12.07.2014 01:00 16,8 C 78 % 1007,7 hPa 0,0 l/m 11,0 km/h N 13,0 C 14,7 C 26,5 km/h
12.07.2014 02:00 16,9 C 78 % 1007,5 hPa 0,0 l/m 8,4 km/h N 13,1 C 15,9 C 22,9 km/h
12.07.2014 03:00 17,0 C 79 % 1007,3 hPa 0,0 l/m 10,9 km/h N 13,3 C 15,0 C 29,0 km/h
12.07.2014 04:00 16,9 C 78 % 1007,2 hPa 0,0 l/m 13,9 km/h N 13,0 C 13,8 C 31,0 km/h
12.07.2014 05:00 17,0 C 78 % 1007,5 hPa 0,0 l/m 12,2 km/h N 13,1 C 14,6 C 31,8 km/h
12.07.2014 06:00 17,3 C 77 % 1008,0 hPa 0,0 l/m 9,2 km/h N 13,2 C 16,0 C 25,0 km/h
12.07.2014 07:00 17,4 C 77 % 1008,5 hPa 0,0 l/m 5,6 km/h N 13,3 C 17,4 C 20,1 km/h
12.07.2014 08:00 19,0 C 73 % 1008,4 hPa 0,0 l/m 6,1 km/h N 13,9 C 18,6 C 23,3 km/h
12.07.2014 09:00 20,0 C 70 % 1008,5 hPa 0,0 l/m 6,6 km/h N 14,5 C 19,8 C 22,9 km/h
12.07.2014 10:00 21,0 C 70 % 1008,4 hPa 0,0 l/m 7,6 km/h N 15,2 C 20,5 C 24,5 km/h
12.07.2014 11:00 21,8 C 67 % 1008,5 hPa 0,0 l/m 8,6 km/h N 15,3 C 21,0 C 23,3 km/h
12.07.2014 12:00 22,8 C 62 % 1008,3 hPa 0,0 l/m 8,3 km/h N 15,1 C 22,2 C 25,3 km/h
12.07.2014 13:00 23,5 C 61 % 1008,0 hPa 0,0 l/m 6,7 km/h N 15,4 C 23,4 C 22,9 km/h
12.07.2014 14:00 24,4 C 56 % 1007,8 hPa 0,0 l/m 4,1 km/h N 15,1 C 24,4 C 18,5 km/h
12.07.2014 15:00 24,5 C 56 % 1007,6 hPa 0,0 l/m 5,2 km/h N 15,1 C 24,5 C 25,8 km/h
12.07.2014 16:00 23,2 C 61 % 1007,8 hPa 0,0 l/m 9,1 km/h N 15,1 C 22,4 C 25,4 km/h
12.07.2014 17:00 22,9 C 63 % 1007,8 hPa 0,0 l/m 5,9 km/h N 15,4 C 22,7 C 20,1 km/h
12.07.2014 18:00 23,4 C 60 % 1007,8 hPa 0,0 l/m 4,9 km/h N 15,2 C 23,3 C 16,9 km/h
12.07.2014 19:00 22,9 C 61 % 1008,1 hPa 0,0 l/m 4,4 km/h N 14,8 C 22,9 C 17,3 km/h
12.07.2014 20:00 22,2 C 60 % 1008,6 hPa 0,0 l/m 1,3 km/h N 14,1 C 22,2 C 9,6 km/h
12.07.2014 21:00 20,4 C 63 % 1009,4 hPa 0,0 l/m 2,5 km/h N 13,2 C 20,4 C 14,1 km/h
12.07.2014 22:00 20,1 C 65 % 1009,7 hPa 0,0 l/m 1,8 km/h N 13,3 C 20,1 C 15,3 km/h
12.07.2014 23:00 19,5 C 69 % 1009,7 hPa 0,0 l/m 0,3 km/h N 13,5 C 19,5 C 3,6 km/h
13.07.2014 00:00 18,6 C 73 % 1009,6 hPa 0,0 l/m 0,3 km/h N 13,6 C 18,6 C 4,4 km/h
13.07.2014 01:00 18,3 C 75 % 1009,4 hPa 0,0 l/m 0,4 km/h N 13,8 C 18,3 C 3,6 km/h
13.07.2014 02:00 17,4 C 78 % 1009,6 hPa 0,0 l/m 0,1 km/h N 13,5 C 17,4 C 2,4 km/h
13.07.2014 03:00 16,5 C 79 % 1009,8 hPa 0,0 l/m 0,0 km/h N 12,9 C 16,5 C 0,4 km/h
13.07.2014 04:00 15,5 C 82 % 1010,2 hPa 0,0 l/m 0,0 km/h N 12,4 C 15,5 C 0,0 km/h
13.07.2014 05:00 15,2 C 83 % 1010,3 hPa 0,0 l/m 0,0 km/h N 12,3 C 15,2 C 0,0 km/h
13.07.2014 06:00 16,3 C 82 % 1010,5 hPa 0,0 l/m 0,0 km/h N 13,3 C 16,3 C 0,8 km/h
13.07.2014 07:00 18,8 C 81 % 1010,4 hPa 0,0 l/m 0,6 km/h N 15,4 C 18,8 C 7,6 km/h
13.07.2014 08:00 21,8 C 70 % 1010,5 hPa 0,0 l/m 0,3 km/h N 16,1 C 21,8 C 4,4 km/h
13.07.2014 09:00 22,5 C 67 % 1010,5 hPa 0,0 l/m 1,2 km/h N 16,1 C 22,5 C 10,1 km/h
13.07.2014 10:00 23,7 C 63 % 1010,4 hPa 0,0 l/m 0,9 km/h N 16,2 C 23,7 C 9,3 km/h
13.07.2014 11:00 25,0 C 58 % 1010,2 hPa 0,0 l/m 0,2 km/h N 16,1 C 25,0 C 2,8 km/h
13.07.2014 12:00 24,0 C 60 % 1010,1 hPa 0,0 l/m 1,3 km/h N 15,7 C 24,0 C 6,0 km/h
13.07.2014 13:00 25,1 C 55 % 1009,8 hPa 0,0 l/m 0,8 km/h N 15,3 C 25,1 C 6,4 km/h
13.07.2014 14:00 21,5 C 69 % 1010,5 hPa 0,3 l/m 3,3 km/h N 15,5 C 21,5 C 12,5 km/h
13.07.2014 15:00 21,4 C 74 % 1011,0 hPa 0,0 l/m 1,6 km/h N 16,5 C 21,4 C 8,9 km/h
13.07.2014 16:00 22,0 C 69 % 1010,8 hPa 0,0 l/m 0,4 km/h N 16,0 C 22,0 C 4,4 km/h
13.07.2014 17:00 21,2 C 78 % 1010,6 hPa 1,6 l/m 0,4 km/h N 17,1 C 21,2 C 4,0 km/h
13.07.2014 18:00 20,7 C 81 % 1010,0 hPa 0,0 l/m 0,2 km/h N 17,3 C 20,7 C 2,8 km/h
13.07.2014 19:00 20,5 C 81 % 1009,8 hPa 0,0 l/m 0,2 km/h N 17,2 C 20,5 C 2,8 km/h
13.07.2014 20:00 20,1 C 79 % 1010,0 hPa 0,0 l/m 0,2 km/h N 16,3 C 20,1 C 2,0 km/h
13.07.2014 21:00 18,8 C 81 % 1010,1 hPa 0,0 l/m 0,0 km/h N 15,4 C 18,8 C 0,0 km/h
13.07.2014 22:00 18,0 C 83 % 1010,3 hPa 0,0 l/m 0,0 km/h N 15,0 C 18,0 C 0,0 km/h
13.07.2014 23:00 17,2 C 83 % 1010,5 hPa 0,0 l/m 0,0 km/h N 14,3 C 17,2 C 0,0 km/h
Min-Datum _ 10.07.14 08.07.14 08.07.14 - 07.07.14 - 10.07.14 11.07.14 07.07.14
_ Min-Zeit 05:30 15:30 18:15 - 00:00 - 05:30 08:00 00:00
Minimum _ 12,7 C 43 % 1000,9 hPa - 0,0 km/h - 8,4 C 9,9 C 0,0 km/h
Max-Datum _ 07.07.14 11.07.14 07.07.14 11.07.14 09.07.14 - 07.07.14 07.07.14 09.07.14
_ Max-Zeit 18:15 19:15 10:45 07:45 15:45 - 19:30 18:00 19:15
Maximum _ 30,7 C 84 % 1014,0 hPa 4,2 l/m 17,1 km/h
N
- 20,9 C 30,6 C 46,7 km/h
N
Durchschnitt _ 19,8 C 70 % 1007,8 hPa #25,5 l/m 5,0 km/h N 13,8 C 19,1 C 16,0 km/h